Time;durP1;ratioP1;P1;durP2;ratioP2;P2;SDS_P1;SDS_P2;PMS_P1;PMS_P2;Temp;Humidity;BMP_temperature;BMP_pressure;BME280_temperature;BME280_humidity;BME280_pressure;Samples;Min_cycle;Max_cycle;Signal;HPM_P1;HPM_P2
2020/12/31 00:00:35;;;;;;;0.30;0.30;;;3.80;99.90;;;;;;5055066;28;20178;-75
2020/12/31 00:03:01;;;;;;;0.30;0.30;;;3.80;99.90;;;;;;5055084;28;20204;-75
2020/12/31 00:05:27;;;;;;;0.60;0.60;;;3.70;99.90;;;;;;5055454;28;20166;-75
2020/12/31 00:07:52;;;;;;;0.40;0.40;;;3.70;99.90;;;;;;5040296;28;20263;-76
2020/12/31 00:10:18;;;;;;;0.30;0.30;;;3.70;99.90;;;;;;5035425;28;20174;-75
2020/12/31 00:12:44;;;;;;;0.40;0.40;;;3.70;99.90;;;;;;5050088;28;20225;-75
2020/12/31 00:15:09;;;;;;;0.30;0.30;;;3.60;99.90;;;;;;5048572;28;20175;-74
2020/12/31 00:17:35;;;;;;;0.70;0.70;;;3.60;99.90;;;;;;5049120;28;20231;-75
2020/12/31 00:20:01;;;;;;;0.30;0.30;;;3.70;99.90;;;;;;5055047;28;20714;-75
2020/12/31 00:22:27;;;;;;;0.30;0.30;;;3.70;99.90;;;;;;5053474;28;20247;-77
2020/12/31 00:24:52;;;;;;;0.30;0.30;;;3.70;99.90;;;;;;5054511;28;20244;-74
2020/12/31 00:27:18;;;;;;;0.80;0.80;;;3.70;99.90;;;;;;5053412;28;20201;-75
2020/12/31 00:29:44;;;;;;;0.30;0.30;;;3.60;99.90;;;;;;5053762;28;20699;-76
2020/12/31 00:32:10;;;;;;;0.30;0.30;;;3.60;99.90;;;;;;5054716;28;20416;-74
2020/12/31 00:34:35;;;;;;;0.30;0.30;;;3.60;99.90;;;;;;5054884;28;20238;-74
2020/12/31 00:37:01;;;;;;;0.30;0.30;;;3.60;99.90;;;;;;5046842;28;20170;-73
2020/12/31 00:39:27;;;;;;;0.30;0.30;;;3.60;99.90;;;;;;5034775;28;20224;-74
2020/12/31 00:41:53;;;;;;;0.30;0.30;;;3.70;99.90;;;;;;5042138;28;20716;-74
2020/12/31 00:44:19;;;;;;;0.30;0.30;;;3.70;99.90;;;;;;5034860;28;20173;-75
2020/12/31 00:46:44;;;;;;;0.30;0.30;;;3.80;99.90;;;;;;5051202;28;20197;-74
2020/12/31 00:49:10;;;;;;;0.40;0.40;;;3.80;99.90;;;;;;5054931;28;20170;-75
2020/12/31 00:51:35;;;;;;;0.40;0.40;;;3.80;99.90;;;;;;5052934;28;20193;-73
2020/12/31 00:54:01;;;;;;;0.30;0.30;;;3.80;99.90;;;;;;5054901;28;20534;-75
2020/12/31 00:56:27;;;;;;;0.33;0.33;;;3.80;99.90;;;;;;5054301;28;20185;-76
2020/12/31 00:58:53;;;;;;;0.50;0.50;;;3.80;99.90;;;;;;5054677;28;20177;-75
2020/12/31 01:01:19;;;;;;;0.30;0.30;;;3.80;99.90;;;;;;5050053;28;20220;-74
2020/12/31 01:03:44;;;;;;;0.50;0.50;;;3.80;99.90;;;;;;5054249;28;20432;-75
2020/12/31 01:06:10;;;;;;;0.30;0.30;;;3.80;99.90;;;;;;5053800;28;20415;-75
2020/12/31 01:08:36;;;;;;;0.30;0.30;;;3.80;99.90;;;;;;5054246;28;20169;-74
2020/12/31 01:11:03;;;;;;;0.30;0.30;;;3.80;99.90;;;;;;5052703;28;20535;-74
2020/12/31 01:13:28;;;;;;;0.30;0.30;;;3.80;99.90;;;;;;5043146;28;20198;-78
2020/12/31 01:15:54;;;;;;;0.30;0.30;;;3.80;99.90;;;;;;5040049;28;20215;-74
2020/12/31 01:18:20;;;;;;;0.30;0.30;;;3.80;99.90;;;;;;5054319;28;20641;-75
2020/12/31 01:20:45;;;;;;;0.30;0.30;;;3.80;99.90;;;;;;5052195;28;20252;-74
2020/12/31 01:23:12;;;;;;;0.53;0.53;;;3.80;99.90;;;;;;5051836;28;20837;-76
2020/12/31 01:25:38;;;;;;;0.30;0.30;;;3.70;99.90;;;;;;5053771;28;20173;-74
2020/12/31 01:28:04;;;;;;;0.40;0.40;;;3.70;99.90;;;;;;5054396;28;20553;-75
2020/12/31 01:30:30;;;;;;;0.30;0.30;;;3.70;99.90;;;;;;5053501;28;20216;-73
2020/12/31 01:32:56;;;;;;;0.30;0.30;;;3.60;99.90;;;;;;5054094;28;20285;-73
2020/12/31 01:35:22;;;;;;;0.40;0.40;;;3.50;99.90;;;;;;5053845;28;20244;-76
2020/12/31 01:37:49;;;;;;;0.30;0.30;;;3.50;99.90;;;;;;5040766;28;20676;-75
2020/12/31 01:40:15;;;;;;;0.30;0.30;;;3.40;99.90;;;;;;5052118;28;20576;-75
2020/12/31 01:42:41;;;;;;;0.40;0.40;;;3.40;99.90;;;;;;5053358;28;20201;-75
2020/12/31 01:45:08;;;;;;;0.60;0.60;;;3.40;99.90;;;;;;5053570;28;20267;-75
2020/12/31 01:47:34;;;;;;;0.30;0.30;;;3.40;99.90;;;;;;5053218;28;20204;-74
2020/12/31 01:50:00;;;;;;;0.30;0.30;;;3.40;99.90;;;;;;5053146;28;20614;-75
2020/12/31 01:52:27;;;;;;;0.38;0.38;;;3.30;99.90;;;;;;5052448;28;20276;-76
2020/12/31 01:54:53;;;;;;;0.30;0.30;;;3.30;99.90;;;;;;5053028;28;20529;-75
2020/12/31 01:57:18;;;;;;;0.40;0.40;;;3.30;99.90;;;;;;5052115;28;20174;-74
2020/12/31 01:59:45;;;;;;;0.30;0.30;;;3.20;99.90;;;;;;5053351;28;20176;-75
2020/12/31 02:02:11;;;;;;;0.60;0.50;;;3.10;99.90;;;;;;5053103;28;20201;-75
2020/12/31 02:04:38;;;;;;;0.30;0.30;;;3.10;99.90;;;;;;5053166;28;20170;-75
2020/12/31 02:07:05;;;;;;;0.40;0.40;;;3.00;99.90;;;;;;5049871;28;20592;-75
2020/12/31 02:09:31;;;;;;;0.30;0.30;;;3.00;99.90;;;;;;5037202;28;20223;-75
2020/12/31 02:12:02;;;;;;;0.30;0.30;;;3.00;99.90;;;;;;5052688;28;20197;-75
2020/12/31 02:14:27;;;;;;;0.30;0.30;;;2.90;99.90;;;;;;5051817;28;20424;-76
2020/12/31 02:16:53;;;;;;;0.30;0.30;;;2.90;99.90;;;;;;5053310;28;20219;-75
2020/12/31 02:19:19;;;;;;;0.30;0.30;;;2.90;99.90;;;;;;5053050;28;20177;-75
2020/12/31 02:21:48;;;;;;;0.30;0.30;;;2.90;99.90;;;;;;5051760;28;20229;-75
2020/12/31 02:24:14;;;;;;;0.38;0.38;;;2.80;99.90;;;;;;5052733;28;20169;-75
2020/12/31 02:26:41;;;;;;;1.10;1.02;;;2.70;99.90;;;;;;5052878;28;20239;-74
2020/12/31 02:29:09;;;;;;;0.40;0.40;;;2.60;99.90;;;;;;5052686;28;20166;-76
2020/12/31 02:31:35;;;;;;;0.30;0.30;;;2.60;99.90;;;;;;5052526;28;20211;-75
2020/12/31 02:34:02;;;;;;;0.30;0.30;;;2.50;99.90;;;;;;5052677;28;20184;-75
2020/12/31 02:36:30;;;;;;;0.45;0.45;;;2.50;99.90;;;;;;5049149;28;20570;-75
2020/12/31 02:38:58;;;;;;;0.30;0.30;;;2.40;99.90;;;;;;5036784;28;20173;-74
2020/12/31 02:41:23;;;;;;;0.30;0.30;;;2.40;99.90;;;;;;5052622;28;20189;-74
2020/12/31 02:43:49;;;;;;;0.30;0.30;;;2.30;99.90;;;;;;5052117;28;20189;-75
2020/12/31 02:46:16;;;;;;;0.60;0.60;;;2.30;99.90;;;;;;5052814;28;20178;-74
2020/12/31 02:48:42;;;;;;;0.30;0.30;;;2.30;99.90;;;;;;5055584;28;20396;-75
2020/12/31 02:51:08;;;;;;;0.30;0.30;;;2.20;99.90;;;;;;5049806;28;20193;-75
2020/12/31 02:53:34;;;;;;;0.30;0.30;;;2.30;99.90;;;;;;5036805;28;20409;-75
2020/12/31 02:56:01;;;;;;;0.30;0.30;;;2.20;99.90;;;;;;5055957;28;21692;-76
2020/12/31 02:58:26;;;;;;;0.77;0.77;;;2.20;99.90;;;;;;5056332;28;20174;-75
2020/12/31 03:00:52;;;;;;;0.30;0.30;;;2.20;99.90;;;;;;5055750;28;20243;-76
2020/12/31 03:03:18;;;;;;;0.30;0.30;;;2.20;99.90;;;;;;5056408;28;20200;-75
2020/12/31 03:05:44;;;;;;;0.30;0.30;;;2.20;99.90;;;;;;5055714;28;20598;-74
2020/12/31 03:08:10;;;;;;;0.37;0.37;;;2.20;99.90;;;;;;5056042;28;20223;-75
2020/12/31 03:10:36;;;;;;;0.30;0.30;;;2.20;99.90;;;;;;5055976;28;20674;-74
2020/12/31 03:13:02;;;;;;;0.30;0.30;;;2.20;99.90;;;;;;5056430;28;20557;-76
2020/12/31 03:15:28;;;;;;;0.30;0.30;;;2.20;99.90;;;;;;5056222;28;20184;-75
2020/12/31 03:17:53;;;;;;;0.30;0.30;;;2.30;99.90;;;;;;5056442;28;20983;-75
2020/12/31 03:20:19;;;;;;;0.30;0.30;;;2.20;99.90;;;;;;5054957;28;20183;-75
2020/12/31 03:22:45;;;;;;;0.30;0.30;;;2.30;99.90;;;;;;5055666;28;20224;-75
2020/12/31 03:25:10;;;;;;;0.30;0.30;;;2.30;99.90;;;;;;5055911;28;20215;-76
2020/12/31 03:27:36;;;;;;;0.30;0.30;;;2.30;99.90;;;;;;5056014;28;20227;-74
2020/12/31 03:30:04;;;;;;;0.30;0.30;;;2.30;99.90;;;;;;5054091;28;20220;-75
2020/12/31 03:32:31;;;;;;;0.30;0.30;;;2.40;99.90;;;;;;5056037;28;20280;-76
2020/12/31 03:34:56;;;;;;;0.30;0.30;;;2.40;99.90;;;;;;5046485;28;20170;-75
2020/12/31 03:37:26;;;;;;;0.33;0.33;;;2.40;99.90;;;;;;5036026;28;20176;-75
2020/12/31 03:39:52;;;;;;;0.30;0.30;;;2.40;99.90;;;;;;5045495;28;20181;-75
2020/12/31 03:42:19;;;;;;;1.67;1.63;;;2.40;99.90;;;;;;5055420;28;20191;-75
2020/12/31 03:44:44;;;;;;;0.30;0.30;;;2.40;99.90;;;;;;5055984;28;20181;-75
2020/12/31 03:47:10;;;;;;;0.30;0.30;;;2.30;99.90;;;;;;5055359;28;20197;-75
2020/12/31 03:49:35;;;;;;;0.30;0.30;;;2.30;99.90;;;;;;5055738;28;20511;-75
2020/12/31 03:52:01;;;;;;;0.50;0.50;;;2.10;99.90;;;;;;5054958;28;20200;-76
2020/12/31 03:54:27;;;;;;;0.30;0.30;;;2.10;99.90;;;;;;5053438;28;20205;-75
2020/12/31 03:56:52;;;;;;;0.30;0.30;;;2.00;99.90;;;;;;5055353;28;20641;-75
2020/12/31 03:59:18;;;;;;;0.30;0.30;;;1.90;99.90;;;;;;5054364;28;20171;-74
2020/12/31 04:01:45;;;;;;;0.30;0.30;;;1.90;99.90;;;;;;5054698;28;20205;-75
2020/12/31 04:04:11;;;;;;;0.30;0.30;;;1.80;99.90;;;;;;5037406;28;20253;-74
2020/12/31 04:06:37;;;;;;;0.30;0.30;;;1.70;99.90;;;;;;5037539;28;20297;-73
2020/12/31 04:09:02;;;;;;;0.50;0.50;;;1.70;99.90;;;;;;5055446;28;20245;-75
2020/12/31 04:11:30;;;;;;;0.30;0.30;;;1.60;99.90;;;;;;5053416;28;20245;-76
2020/12/31 04:13:56;;;;;;;1.20;0.88;;;1.50;99.90;;;;;;5034150;28;20171;-73
2020/12/31 04:16:21;;;;;;;0.30;0.30;;;1.40;99.90;;;;;;5045366;28;20542;-76
2020/12/31 04:18:47;;;;;;;0.30;0.30;;;1.40;99.90;;;;;;5054906;28;20173;-74
2020/12/31 04:21:13;;;;;;;0.30;0.30;;;1.30;99.90;;;;;;5054703;28;20225;-75
2020/12/31 04:23:39;;;;;;;0.40;0.40;;;1.30;99.90;;;;;;5054914;28;20176;-75
2020/12/31 04:26:05;;;;;;;0.40;0.40;;;1.20;99.90;;;;;;5055197;28;20575;-75
2020/12/31 04:28:30;;;;;;;1.00;1.00;;;1.20;99.90;;;;;;5054497;28;20206;-75
2020/12/31 04:30:56;;;;;;;0.40;0.40;;;1.10;99.90;;;;;;5045804;28;20924;-75
2020/12/31 04:33:22;;;;;;;0.30;0.30;;;1.10;99.90;;;;;;5050489;28;20177;-75
2020/12/31 04:35:47;;;;;;;0.30;0.30;;;1.10;99.90;;;;;;5055012;28;20178;-74
2020/12/31 04:38:13;;;;;;;0.30;0.30;;;1.00;99.90;;;;;;5054457;28;20213;-75
2020/12/31 04:40:45;;;;;;;0.30;0.30;;;1.00;99.90;;;;;;5054294;28;20174;-75
2020/12/31 04:43:11;;;;;;;0.30;0.30;;;1.00;99.90;;;;;;5054295;28;20255;-75
2020/12/31 04:45:39;;;;;;;0.45;0.45;;;1.00;99.90;;;;;;5053227;28;20634;-74
2020/12/31 04:48:30;;;;;;;0.30;0.30;;;1.00;99.90;;;;;;5054255;28;20209;-74
2020/12/31 04:50:58;;;;;;;0.30;0.30;;;1.00;99.90;;;;;;5054027;28;20171;-76
2020/12/31 04:53:25;;;;;;;0.30;0.30;;;1.00;99.90;;;;;;5054154;28;20219;-76
2020/12/31 04:55:52;;;;;;;0.30;0.30;;;1.00;99.90;;;;;;5054572;28;20611;-76
2020/12/31 04:58:18;;;;;;;0.50;0.50;;;1.00;99.90;;;;;;5054077;28;20510;-74
2020/12/31 05:00:45;;;;;;;0.30;0.30;;;1.10;99.90;;;;;;5043512;28;20195;-75
2020/12/31 05:03:11;;;;;;;0.40;0.40;;;1.00;99.90;;;;;;5049409;28;20232;-73
2020/12/31 05:05:38;;;;;;;0.30;0.30;;;1.10;99.90;;;;;;5054360;28;20178;-76
2020/12/31 05:08:04;;;;;;;0.30;0.30;;;1.00;99.90;;;;;;5053915;28;21029;-74
2020/12/31 05:10:31;;;;;;;0.32;0.32;;;1.00;99.90;;;;;;5053583;28;20169;-76
2020/12/31 05:13:04;;;;;;;0.40;0.40;;;1.00;99.90;;;;;;5053783;28;20197;-72
2020/12/31 05:15:40;;;;;;;0.30;0.30;;;0.90;99.90;;;;;;5053380;28;20181;-75
2020/12/31 05:18:26;;;;;;;0.40;0.40;;;0.90;99.90;;;;;;5052373;28;20181;-75
2020/12/31 05:20:53;;;;;;;0.30;0.30;;;0.90;99.90;;;;;;5053436;28;20235;-76
2020/12/31 05:23:21;;;;;;;0.57;0.57;;;0.80;99.90;;;;;;5053588;28;20644;-75
2020/12/31 05:25:47;;;;;;;0.40;0.40;;;0.80;99.90;;;;;;5053799;28;20207;-75
2020/12/31 05:28:33;;;;;;;0.30;0.30;;;0.70;99.90;;;;;;5053579;28;20248;-75
2020/12/31 05:31:10;;;;;;;0.30;0.30;;;0.60;99.90;;;;;;5052561;28;20194;-76
2020/12/31 05:33:40;;;;;;;0.40;0.40;;;0.50;99.90;;;;;;5052236;28;20649;-76
2020/12/31 05:36:18;;;;;;;0.30;0.30;;;0.50;99.90;;;;;;5052411;28;20181;-74
2020/12/31 05:38:45;;;;;;;0.30;0.30;;;0.40;99.90;;;;;;5053350;28;20173;-74
2020/12/31 05:41:11;;;;;;;0.35;0.35;;;0.40;99.90;;;;;;5053113;28;20273;-76
2020/12/31 05:43:40;;;;;;;0.35;0.35;;;0.40;99.90;;;;;;5053019;28;20502;-74
2020/12/31 05:46:07;;;;;;;0.93;0.93;;;0.40;99.90;;;;;;5051346;28;20577;-75
2020/12/31 05:48:33;;;;;;;0.30;0.30;;;0.50;99.90;;;;;;5053432;28;20283;-76
2020/12/31 05:50:58;;;;;;;0.30;0.30;;;0.50;99.90;;;;;;5052704;28;20228;-75
2020/12/31 05:53:25;;;;;;;0.30;0.30;;;0.40;99.90;;;;;;5052813;28;20173;-75
2020/12/31 05:55:55;;;;;;;0.40;0.40;;;0.50;99.90;;;;;;5053089;28;20177;-74
2020/12/31 05:58:28;;;;;;;0.30;0.30;;;0.50;99.90;;;;;;5052122;28;20178;-73
2020/12/31 06:01:04;;;;;;;0.30;0.30;;;0.50;99.90;;;;;;5052415;28;20669;-74
2020/12/31 06:03:47;;;;;;;0.30;0.30;;;0.50;99.90;;;;;;5053478;28;20537;-76
2020/12/31 06:06:16;;;;;;;0.30;0.30;;;0.50;99.90;;;;;;5052268;28;20264;-75
2020/12/31 06:08:57;;;;;;;0.30;0.30;;;0.50;99.90;;;;;;5052054;28;20223;-76
2020/12/31 06:11:47;;;;;;;0.30;0.30;;;0.50;99.90;;;;;;5051154;28;20535;-75
2020/12/31 06:14:18;;;;;;;0.30;0.30;;;0.50;99.90;;;;;;5052398;28;20162;-75
2020/12/31 06:17:00;;;;;;;0.30;0.30;;;0.60;99.90;;;;;;5052310;28;20258;-74
2020/12/31 06:19:38;;;;;;;0.40;0.40;;;0.60;99.90;;;;;;5053123;28;20170;-75
2020/12/31 06:22:11;;;;;;;0.30;0.30;;;0.60;99.90;;;;;;5051504;28;20225;-76
2020/12/31 06:24:47;;;;;;;0.40;0.40;;;0.60;99.90;;;;;;5052817;28;20273;-77
2020/12/31 06:27:19;;;;;;;0.40;0.40;;;0.60;99.90;;;;;;5049635;28;20212;-75
2020/12/31 06:29:50;;;;;;;0.40;0.40;;;0.60;99.90;;;;;;5051885;28;20181;-77
2020/12/31 06:32:30;;;;;;;0.30;0.30;;;0.60;99.90;;;;;;5032902;28;20489;-74
2020/12/31 06:35:04;;;;;;;0.30;0.30;;;0.60;99.90;;;;;;5033842;28;20218;-75
2020/12/31 06:37:30;;;;;;;0.30;0.30;;;0.60;99.90;;;;;;5052972;28;20207;-74
2020/12/31 06:40:23;;;;;;;0.30;0.30;;;0.60;99.90;;;;;;5052360;28;20508;-75
2020/12/31 06:43:00;;;;;;;0.30;0.30;;;0.60;99.90;;;;;;5037802;28;20243;-73
2020/12/31 06:45:39;;;;;;;0.45;0.45;;;0.60;99.90;;;;;;5052636;28;20173;-76
2020/12/31 06:48:31;;;;;;;0.40;0.40;;;0.50;99.90;;;;;;5051693;28;20190;-76
2020/12/31 06:50:58;;;;;;;0.30;0.30;;;0.60;99.90;;;;;;5045682;28;20499;-75
2020/12/31 06:53:50;;;;;;;0.30;0.30;;;0.60;99.90;;;;;;5033177;28;20253;-74
2020/12/31 06:56:16;;;;;;;0.40;0.40;;;0.50;99.90;;;;;;5043624;28;20173;-73
2020/12/31 06:58:44;;;;;;;0.40;0.40;;;0.50;99.90;;;;;;5052805;28;20265;-72
2020/12/31 07:01:26;;;;;;;0.30;0.30;;;0.50;99.90;;;;;;5050592;28;20601;-71
2020/12/31 07:04:01;;;;;;;0.35;0.35;;;0.50;99.90;;;;;;5052083;28;20234;-72
2020/12/31 07:06:29;;;;;;;0.40;0.40;;;0.50;99.90;;;;;;5051035;28;20549;-72
2020/12/31 07:08:56;;;;;;;0.30;0.30;;;0.40;99.90;;;;;;5051857;28;20217;-72
2020/12/31 07:11:36;;;;;;;0.50;0.50;;;0.50;99.90;;;;;;5051935;28;20285;-72
2020/12/31 07:14:22;;;;;;;0.32;0.32;;;0.50;99.90;;;;;;5052711;28;20242;-72
2020/12/31 07:17:11;;;;;;;0.30;0.30;;;0.40;99.90;;;;;;5052618;28;20529;-73
2020/12/31 07:19:45;;;;;;;0.30;0.30;;;0.40;99.90;;;;;;5051945;28;20186;-76
2020/12/31 07:22:10;;;;;;;0.30;0.30;;;0.40;99.90;;;;;;5051152;28;20201;-75
2020/12/31 07:24:53;;;;;;;0.30;0.30;;;0.40;99.90;;;;;;5052634;28;20215;-72
2020/12/31 07:27:26;;;;;;;0.30;0.30;;;0.50;99.90;;;;;;5051077;28;20557;-75
2020/12/31 07:30:08;;;;;;;0.30;0.30;;;0.50;99.90;;;;;;5052195;28;20166;-71
2020/12/31 07:32:49;;;;;;;0.30;0.30;;;0.50;99.90;;;;;;5050126;28;20232;-75
2020/12/31 07:35:22;;;;;;;0.30;0.30;;;0.50;99.90;;;;;;5055640;28;20169;-74
2020/12/31 07:37:56;;;;;;;0.40;0.40;;;0.60;99.90;;;;;;5056110;28;20218;-74
2020/12/31 07:40:32;;;;;;;0.40;0.40;;;0.60;99.90;;;;;;5055311;28;20256;-73
2020/12/31 07:42:58;;;;;;;0.30;0.30;;;0.60;99.90;;;;;;5054562;28;20200;-73
2020/12/31 07:45:26;;;;;;;0.30;0.30;;;0.70;99.90;;;;;;5055454;28;20500;-67
2020/12/31 07:47:55;;;;;;;0.93;0.93;;;0.80;99.90;;;;;;5043849;28;20195;-71
2020/12/31 07:50:22;;;;;;;0.30;0.30;;;0.90;99.90;;;;;;5035248;28;20265;-73
2020/12/31 07:52:48;;;;;;;0.40;0.40;;;0.90;99.90;;;;;;5054314;28;20208;-73
2020/12/31 07:55:15;;;;;;;0.30;0.30;;;1.00;99.90;;;;;;5054122;28;20223;-70
2020/12/31 07:57:41;;;;;;;0.30;0.30;;;1.10;99.90;;;;;;5054403;28;20188;-73
2020/12/31 08:00:12;;;;;;;0.30;0.30;;;1.20;99.90;;;;;;5055077;28;20179;-75
2020/12/31 08:02:46;;;;;;;0.40;0.40;;;1.30;99.90;;;;;;5055145;28;20708;-76
2020/12/31 08:05:17;;;;;;;0.30;0.30;;;1.40;99.90;;;;;;5055505;28;20264;-71
2020/12/31 08:07:44;;;;;;;0.40;0.40;;;1.40;99.90;;;;;;5054945;28;20193;-72
2020/12/31 08:10:11;;;;;;;0.45;0.45;;;1.50;99.90;;;;;;5055006;28;20177;-73
2020/12/31 08:12:39;;;;;;;0.30;0.30;;;1.50;99.90;;;;;;5053114;28;20632;-75
2020/12/31 08:15:06;;;;;;;0.32;0.32;;;1.50;99.90;;;;;;5055222;28;20170;-75
2020/12/31 08:17:32;;;;;;;0.30;0.30;;;1.60;99.90;;;;;;5055068;28;20182;-73
2020/12/31 08:20:01;;;;;;;1.37;1.27;;;1.60;99.90;;;;;;5053260;28;20184;-72
2020/12/31 08:22:41;;;;;;;0.30;0.30;;;1.70;99.90;;;;;;5054635;28;20482;-70
2020/12/31 08:25:12;;;;;;;0.30;0.30;;;1.80;99.90;;;;;;5054879;28;20256;-73
2020/12/31 08:27:40;;;;;;;0.30;0.30;;;1.90;99.90;;;;;;5054281;28;20606;-72
2020/12/31 08:30:08;;;;;;;0.30;0.30;;;2.00;99.90;;;;;;5054363;28;20177;-73
2020/12/31 08:32:50;;;;;;;0.32;0.32;;;2.10;99.90;;;;;;5054364;28;20235;-75
2020/12/31 08:35:24;;;;;;;0.30;0.30;;;2.20;99.90;;;;;;5047932;28;20185;-72
2020/12/31 08:38:00;;;;;;;0.30;0.30;;;2.40;99.90;;;;;;5034992;28;20530;-72
2020/12/31 08:40:26;;;;;;;0.40;0.40;;;2.40;99.90;;;;;;5043864;28;20637;-72
2020/12/31 08:42:54;;;;;;;0.40;0.40;;;2.50;99.90;;;;;;5053318;28;20244;-74
2020/12/31 08:45:33;;;;;;;0.40;0.40;;;2.60;99.90;;;;;;5054102;28;20518;-72
2020/12/31 08:48:16;;;;;;;0.40;0.40;;;2.60;99.90;;;;;;5053662;28;20201;-78
2020/12/31 08:50:56;;;;;;;0.30;0.30;;;2.60;99.90;;;;;;5053901;28;20169;-68
2020/12/31 08:53:22;;;;;;;0.40;0.40;;;2.70;99.90;;;;;;5054506;28;20169;-72
2020/12/31 08:55:48;;;;;;;0.30;0.30;;;2.70;99.90;;;;;;5053561;28;20242;-68
2020/12/31 08:58:15;;;;;;;0.50;0.50;;;2.80;99.90;;;;;;5052850;28;20173;-70
2020/12/31 09:00:41;;;;;;;0.30;0.30;;;2.80;99.90;;;;;;5053305;28;20181;-74
2020/12/31 09:03:07;;;;;;;0.30;0.30;;;;;;;;;;5050217;28;20507;-75
2020/12/31 09:05:33;;;;;;;0.30;0.30;;;3.10;99.90;;;;;;5051916;28;20572;-73
2020/12/31 09:08:07;;;;;;;0.30;0.30;;;3.10;99.90;;;;;;5051344;28;20228;-73
2020/12/31 09:10:35;;;;;;;0.40;0.40;;;3.10;99.90;;;;;;5052816;28;20173;-72
2020/12/31 09:13:02;;;;;;;0.30;0.20;;;3.10;99.90;;;;;;5052467;28;20221;-73
2020/12/31 09:15:28;;;;;;;0.32;0.32;;;3.10;99.90;;;;;;5053693;28;20178;-71
2020/12/31 09:17:54;;;;;;;1.48;0.95;;;3.20;99.90;;;;;;5053190;28;20547;-75
2020/12/31 09:20:30;;;;;;;0.30;0.30;;;3.20;99.90;;;;;;5051938;28;20200;-75
2020/12/31 09:23:09;;;;;;;0.30;0.30;;;3.20;99.90;;;;;;5053852;28;20189;-73
2020/12/31 09:25:48;;;;;;;0.30;0.30;;;3.30;99.90;;;;;;5053322;28;20173;-70
2020/12/31 09:28:14;;;;;;;0.40;0.40;;;3.30;99.90;;;;;;5033909;28;20602;-72
2020/12/31 09:30:40;;;;;;;0.30;0.30;;;3.20;99.90;;;;;;5045156;28;20210;-74
2020/12/31 09:33:06;;;;;;;0.30;0.30;;;3.20;99.90;;;;;;5054006;28;20216;-71
2020/12/31 09:35:32;;;;;;;0.30;0.30;;;3.30;99.90;;;;;;5053334;28;20419;-72
2020/12/31 09:37:59;;;;;;;0.30;0.30;;;3.40;99.90;;;;;;5052627;28;20205;-73
2020/12/31 09:40:25;;;;;;;0.30;0.30;;;3.50;99.90;;;;;;5047858;28;20921;-74
2020/12/31 09:42:52;;;;;;;0.43;0.40;;;3.60;99.90;;;;;;5033291;28;20198;-72
2020/12/31 09:45:18;;;;;;;0.30;0.30;;;3.60;99.90;;;;;;5039896;28;20192;-71
2020/12/31 09:47:44;;;;;;;0.40;0.40;;;3.70;99.90;;;;;;5051796;28;20193;-74
2020/12/31 09:50:11;;;;;;;0.30;0.30;;;3.80;99.90;;;;;;5051164;28;20671;-73
2020/12/31 09:52:38;;;;;;;0.40;0.40;;;3.90;99.90;;;;;;5032835;28;20447;-70
2020/12/31 09:55:05;;;;;;;0.30;0.30;;;3.90;99.90;;;;;;5032205;28;20173;-72
2020/12/31 09:57:30;;;;;;;0.30;0.30;;;3.90;99.90;;;;;;5037136;28;20181;-75
2020/12/31 09:59:56;;;;;;;0.30;0.30;;;4.00;99.90;;;;;;5050575;28;20322;-71
2020/12/31 10:02:22;;;;;;;0.30;0.30;;;4.10;99.90;;;;;;5052493;28;20278;-74
2020/12/31 10:04:48;;;;;;;0.30;0.30;;;4.30;99.90;;;;;;5050914;28;20180;-70
2020/12/31 10:07:14;;;;;;;0.30;0.30;;;4.40;99.90;;;;;;5049516;28;20201;-74
2020/12/31 10:09:40;;;;;;;0.40;0.40;;;4.50;99.90;;;;;;5050217;28;20208;-71
2020/12/31 10:12:06;;;;;;;0.40;0.40;;;4.60;99.90;;;;;;5050118;28;20986;-73
2020/12/31 10:14:33;;;;;;;0.30;0.30;;;4.60;99.90;;;;;;5052575;28;20193;-72
2020/12/31 10:16:59;;;;;;;0.30;0.30;;;4.70;99.90;;;;;;5046604;28;20639;-70
2020/12/31 10:19:24;;;;;;;0.30;0.30;;;4.70;99.90;;;;;;5032417;28;20185;-71
2020/12/31 10:21:50;;;;;;;0.30;0.20;;;4.70;99.90;;;;;;5030894;28;20193;-74
2020/12/31 10:24:16;;;;;;;0.30;0.30;;;4.80;99.90;;;;;;5032715;28;20205;-73
2020/12/31 10:26:45;;;;;;;0.40;0.40;;;4.80;99.90;;;;;;5046197;28;20256;-74
2020/12/31 10:29:15;;;;;;;0.40;0.40;;;4.80;99.90;;;;;;5053029;28;20215;-74
2020/12/31 10:31:42;;;;;;;0.30;0.30;;;4.90;99.90;;;;;;5052533;28;20182;-73
2020/12/31 10:34:10;;;;;;;0.30;0.30;;;4.90;99.90;;;;;;5053052;28;20177;-75
2020/12/31 10:36:37;;;;;;;0.30;0.20;;;5.00;99.90;;;;;;5049970;28;20170;-74
2020/12/31 10:39:03;;;;;;;0.30;0.30;;;5.10;99.90;;;;;;5033337;28;20528;-72
2020/12/31 10:41:30;;;;;;;0.30;0.30;;;5.20;99.90;;;;;;5031649;28;20190;-75
2020/12/31 10:43:57;;;;;;;0.30;0.20;;;5.20;99.90;;;;;;5046216;28;20185;-72
2020/12/31 10:46:24;;;;;;;0.30;0.30;;;5.30;99.90;;;;;;5052648;28;20620;-71
2020/12/31 10:48:51;;;;;;;0.30;0.30;;;5.40;99.90;;;;;;5038573;28;20189;-72
2020/12/31 10:51:17;;;;;;;0.30;0.30;;;5.40;99.90;;;;;;5032475;28;20261;-74
2020/12/31 10:53:43;;;;;;;3.13;2.00;;;5.50;99.90;;;;;;5033041;28;20177;-75
2020/12/31 10:56:08;;;;;;;0.30;0.30;;;5.60;99.90;;;;;;5032976;28;20170;-73
2020/12/31 10:58:36;;;;;;;0.30;0.30;;;5.70;99.90;;;;;;5032811;28;20413;-73
2020/12/31 11:01:02;;;;;;;0.95;0.95;;;5.70;99.90;;;;;;5032120;28;20457;-72
2020/12/31 11:03:28;;;;;;;0.40;0.40;;;5.70;99.90;;;;;;5032728;28;20225;-74
2020/12/31 11:05:54;;;;;;;0.30;0.30;;;5.70;99.90;;;;;;5031485;28;20634;-75
2020/12/31 11:08:19;;;;;;;0.30;0.30;;;5.70;99.90;;;;;;5041387;28;20229;-75
2020/12/31 11:10:47;;;;;;;0.40;0.40;;;5.60;99.90;;;;;;5055827;28;20169;-71
2020/12/31 11:13:13;;;;;;;0.30;0.30;;;5.40;99.90;;;;;;5047267;28;20170;-71
2020/12/31 11:15:39;;;;;;;0.30;0.30;;;5.20;99.90;;;;;;5036432;28;20208;-74
2020/12/31 11:18:05;;;;;;;0.43;0.43;;;5.10;99.90;;;;;;5036738;28;20257;-73
2020/12/31 11:20:31;;;;;;;0.30;0.30;;;5.00;99.90;;;;;;5035912;28;20202;-73
2020/12/31 11:22:56;;;;;;;0.30;0.30;;;4.90;99.90;;;;;;5036140;28;20976;-73
2020/12/31 11:25:22;;;;;;;0.30;0.30;;;4.80;99.90;;;;;;5034836;28;20185;-73
2020/12/31 11:27:48;;;;;;;0.30;0.30;;;4.90;99.90;;;;;;5041805;28;20255;-74
2020/12/31 11:30:13;;;;;;;0.30;0.30;;;4.80;99.90;;;;;;5055707;28;20650;-73
2020/12/31 11:32:40;;;;;;;0.30;0.30;;;4.90;99.90;;;;;;5055916;28;20234;-75
2020/12/31 11:35:06;;;;;;;2.03;1.92;;;4.90;99.90;;;;;;5056032;28;20630;-72
2020/12/31 11:37:33;;;;;;;0.45;0.45;;;4.90;99.90;;;;;;5056066;28;20188;-72
2020/12/31 11:39:59;;;;;;;0.30;0.30;;;5.00;99.90;;;;;;5055303;28;20181;-76
2020/12/31 11:42:32;;;;;;;0.30;0.30;;;4.90;99.90;;;;;;5049344;28;20187;-71
2020/12/31 11:44:58;;;;;;;0.75;0.75;;;4.90;99.90;;;;;;5034878;28;20534;-74
2020/12/31 11:47:23;;;;;;;0.50;0.50;;;4.90;99.90;;;;;;5036052;28;20206;-72
2020/12/31 11:49:49;;;;;;;1.73;1.73;;;4.90;99.90;;;;;;5034375;28;20276;-74
2020/12/31 11:52:16;;;;;;;0.30;0.30;;;5.00;99.90;;;;;;5052375;28;20272;-74
2020/12/31 11:54:41;;;;;;;0.30;0.30;;;5.00;99.90;;;;;;5056001;28;20260;-72
2020/12/31 11:57:07;;;;;;;0.30;0.30;;;5.10;99.90;;;;;;5054486;28;20275;-72
2020/12/31 11:59:34;;;;;;;0.30;0.30;;;5.10;99.90;;;;;;5056002;28;20173;-73
2020/12/31 12:01:59;;;;;;;0.30;0.30;;;5.20;99.90;;;;;;5055034;28;20303;-72
2020/12/31 12:04:25;;;;;;;0.40;0.40;;;5.30;99.90;;;;;;5044705;28;20209;-72
2020/12/31 12:06:52;;;;;;;0.50;0.50;;;5.40;99.90;;;;;;5033940;28;20202;-73
2020/12/31 12:09:19;;;;;;;0.30;0.30;;;5.40;99.90;;;;;;5035252;28;20162;-73
2020/12/31 12:11:45;;;;;;;0.30;0.30;;;5.50;99.90;;;;;;5034804;28;20186;-73
2020/12/31 12:14:11;;;;;;;0.30;0.30;;;5.50;99.90;;;;;;5035324;28;20190;-72
2020/12/31 12:16:36;;;;;;;0.30;0.30;;;5.50;99.90;;;;;;5035402;28;20652;-73
2020/12/31 12:19:02;;;;;;;0.30;0.20;;;5.70;99.90;;;;;;5035335;28;20169;-74
2020/12/31 12:21:28;;;;;;;0.40;0.40;;;5.70;99.90;;;;;;5033698;28;20744;-74
2020/12/31 12:23:53;;;;;;;0.30;0.30;;;5.80;99.90;;;;;;5042701;28;20169;-71
2020/12/31 12:26:19;;;;;;;0.30;0.20;;;5.80;99.90;;;;;;5054900;28;20166;-74
2020/12/31 12:28:44;;;;;;;0.70;0.70;;;5.80;99.90;;;;;;5055150;28;20243;-72
2020/12/31 12:31:10;;;;;;;1.23;1.23;;;5.80;99.90;;;;;;5054543;28;20197;-72
2020/12/31 12:33:36;;;;;;;0.30;0.30;;;5.80;99.90;;;;;;5054686;28;20172;-73
2020/12/31 12:36:02;;;;;;;0.30;0.30;;;5.90;99.90;;;;;;5054785;28;20170;-73
2020/12/31 12:38:27;;;;;;;0.30;0.30;;;5.90;99.90;;;;;;5047055;28;20239;-72
2020/12/31 12:40:53;;;;;;;0.30;0.30;;;5.90;99.90;;;;;;5033093;28;20405;-74
2020/12/31 12:43:19;;;;;;;0.30;0.30;;;5.80;99.90;;;;;;5034672;28;20170;-73
2020/12/31 12:45:44;;;;;;;0.30;0.30;;;5.80;99.90;;;;;;5033463;28;20178;-74
2020/12/31 12:48:10;;;;;;;0.30;0.20;;;5.80;99.90;;;;;;5033154;28;20209;-74
2020/12/31 12:50:36;;;;;;;0.30;0.30;;;5.80;99.90;;;;;;5034252;28;20249;-73
2020/12/31 12:53:01;;;;;;;0.50;0.50;;;5.70;99.90;;;;;;5034524;28;20429;-77
2020/12/31 12:55:27;;;;;;;0.30;0.30;;;5.70;99.90;;;;;;5041854;28;20260;-74
2020/12/31 12:57:52;;;;;;;0.60;0.60;;;5.80;99.90;;;;;;5053194;28;20323;-75
2020/12/31 13:00:19;;;;;;;0.30;0.30;;;5.80;99.90;;;;;;5054034;28;20177;-74
2020/12/31 13:02:44;;;;;;;0.30;0.30;;;5.80;99.90;;;;;;5054389;28;20676;-73